sensor_id;sensor_type;location;lat;lon;timestamp;pressure;altitude;pressure_sealevel;temperature;humidity
60246;BME280;46107;53.356;-1.524;2022-07-06T06:36:21;99982.36;;;15.05;59.18
60246;BME280;46107;53.356;-1.524;2022-07-06T06:38:47;99986.40;;;13.65;59.16
60246;BME280;46107;53.356;-1.524;2022-07-06T06:41:13;99990.14;;;13.67;57.91
60246;BME280;46107;53.356;-1.524;2022-07-06T06:43:40;99989.27;;;14.50;56.16
60246;BME280;46107;53.356;-1.524;2022-07-06T06:46:06;99991.77;;;13.56;58.88
60246;BME280;46107;53.356;-1.524;2022-07-06T06:48:32;99988.03;;;12.44;61.92
60246;BME280;46107;53.356;-1.524;2022-07-06T06:50:59;99988.03;;;14.01;58.06
60246;BME280;46107;53.356;-1.524;2022-07-06T06:53:25;99996.86;;;14.72;55.98
60246;BME280;46107;53.356;-1.524;2022-07-06T06:55:51;100004.79;;;14.77;56.51
60246;BME280;46107;53.356;-1.524;2022-07-06T06:58:18;100006.39;;;13.72;57.60
60246;BME280;46107;53.356;-1.524;2022-07-06T07:00:44;100003.96;;;14.11;57.43
60246;BME280;46107;53.356;-1.524;2022-07-06T07:03:11;100003.62;;;14.28;56.89
60246;BME280;46107;53.356;-1.524;2022-07-06T07:05:37;100004.89;;;13.10;59.87
60246;BME280;46107;53.356;-1.524;2022-07-06T07:08:03;100000.86;;;13.37;59.24
60246;BME280;46107;53.356;-1.524;2022-07-06T07:10:30;100008.02;;;13.49;58.61
60246;BME280;46107;53.356;-1.524;2022-07-06T07:12:56;99990.01;;;13.97;58.61
60246;BME280;46107;53.356;-1.524;2022-07-06T07:15:23;99985.33;;;14.71;55.66
60246;BME280;46107;53.356;-1.524;2022-07-06T07:17:49;99974.24;;;14.80;55.49
60246;BME280;46107;53.356;-1.524;2022-07-06T07:20:15;99984.33;;;13.65;57.90
60246;BME280;46107;53.356;-1.524;2022-07-06T07:22:42;99973.88;;;15.15;55.03
60246;BME280;46107;53.356;-1.524;2022-07-06T07:25:08;99983.20;;;14.91;54.58
60246;BME280;46107;53.356;-1.524;2022-07-06T07:27:35;99979.78;;;14.71;54.45
60246;BME280;46107;53.356;-1.524;2022-07-06T07:30:03;99984.53;;;15.66;53.26
60246;BME280;46107;53.356;-1.524;2022-07-06T07:32:29;99984.90;;;15.29;53.39
60246;BME280;46107;53.356;-1.524;2022-07-06T07:34:55;99988.39;;;15.15;53.56
60246;BME280;46107;53.356;-1.524;2022-07-06T07:37:22;99984.23;;;16.53;50.99
60246;BME280;46107;53.356;-1.524;2022-07-06T07:39:48;99983.13;;;15.50;52.03
60246;BME280;46107;53.356;-1.524;2022-07-06T07:42:14;99985.59;;;14.85;54.14
60246;BME280;46107;53.356;-1.524;2022-07-06T07:44:40;99979.16;;;15.62;52.16
60246;BME280;46107;53.356;-1.524;2022-07-06T07:47:07;99974.23;;;15.24;53.06
60246;BME280;46107;53.356;-1.524;2022-07-06T07:49:33;99981.98;;;14.73;54.31
60246;BME280;46107;53.356;-1.524;2022-07-06T07:51:59;99978.21;;;16.47;49.31
60246;BME280;46107;53.356;-1.524;2022-07-06T07:54:25;99986.84;;;17.15;48.67
60246;BME280;46107;53.356;-1.524;2022-07-06T07:56:51;99989.26;;;16.50;49.09
60246;BME280;46107;53.356;-1.524;2022-07-06T07:59:18;99988.64;;;15.45;51.69
60246;BME280;46107;53.356;-1.524;2022-07-06T08:01:44;99985.50;;;15.38;52.60
60246;BME280;46107;53.356;-1.524;2022-07-06T08:04:10;99984.20;;;14.74;54.33
60246;BME280;46107;53.356;-1.524;2022-07-06T08:06:37;99982.37;;;15.12;52.99
60246;BME280;46107;53.356;-1.524;2022-07-06T08:09:03;99982.52;;;14.66;54.27
60246;BME280;46107;53.356;-1.524;2022-07-06T08:11:29;99989.09;;;14.30;55.25
60246;BME280;46107;53.356;-1.524;2022-07-06T08:13:56;99993.02;;;14.87;55.19
60246;BME280;46107;53.356;-1.524;2022-07-06T08:16:22;99988.37;;;15.49;53.26
60246;BME280;46107;53.356;-1.524;2022-07-06T08:18:48;99989.41;;;16.79;51.00
60246;BME280;46107;53.356;-1.524;2022-07-06T08:21:14;99992.87;;;15.70;53.35
60246;BME280;46107;53.356;-1.524;2022-07-06T08:23:41;99985.23;;;16.30;52.04
60246;BME280;46107;53.356;-1.524;2022-07-06T08:26:07;99985.55;;;16.23;51.50
60246;BME280;46107;53.356;-1.524;2022-07-06T08:28:34;99984.56;;;15.49;52.57
60246;BME280;46107;53.356;-1.524;2022-07-06T08:31:00;99984.57;;;15.33;53.30
60246;BME280;46107;53.356;-1.524;2022-07-06T08:33:27;99986.45;;;15.70;53.21
60246;BME280;46107;53.356;-1.524;2022-07-06T08:35:53;99988.10;;;15.27;54.05
60246;BME280;46107;53.356;-1.524;2022-07-06T08:38:20;99986.46;;;16.17;52.13
60246;BME280;46107;53.356;-1.524;2022-07-06T08:40:48;99985.44;;;15.62;52.34
60246;BME280;46107;53.356;-1.524;2022-07-06T08:43:15;99986.11;;;15.45;53.46
60246;BME280;46107;53.356;-1.524;2022-07-06T08:45:42;99985.24;;;16.53;51.41
60246;BME280;46107;53.356;-1.524;2022-07-06T08:48:10;99984.68;;;16.50;50.98
60246;BME280;46107;53.356;-1.524;2022-07-06T08:50:37;99989.82;;;15.53;54.77
60246;BME280;46107;53.356;-1.524;2022-07-06T08:53:05;99980.86;;;19.04;48.71
60246;BME280;46107;53.356;-1.524;2022-07-06T08:55:33;99990.81;;;18.41;50.46
60246;BME280;46107;53.356;-1.524;2022-07-06T08:58:02;99986.82;;;17.83;51.75
60246;BME280;46107;53.356;-1.524;2022-07-06T09:00:30;99979.63;;;18.23;51.63
60246;BME280;46107;53.356;-1.524;2022-07-06T09:02:59;99986.88;;;17.23;52.86
60246;BME280;46107;53.356;-1.524;2022-07-06T09:05:28;99989.37;;;17.47;52.42
60246;BME280;46107;53.356;-1.524;2022-07-06T09:07:56;99982.69;;;17.45;52.73
60246;BME280;46107;53.356;-1.524;2022-07-06T09:10:24;99984.56;;;16.92;54.71
60246;BME280;46107;53.356;-1.524;2022-07-06T09:12:52;99986.26;;;16.57;54.03
60246;BME280;46107;53.356;-1.524;2022-07-06T09:15:27;99984.55;;;16.58;54.65
60246;BME280;46107;53.356;-1.524;2022-07-06T09:17:55;99994.66;;;16.56;54.89
60246;BME280;46107;53.356;-1.524;2022-07-06T09:20:23;99990.53;;;16.78;54.63
60246;BME280;46107;53.356;-1.524;2022-07-06T09:22:50;99996.60;;;17.51;51.96
60246;BME280;46107;53.356;-1.524;2022-07-06T09:25:20;100001.19;;;16.86;53.40
60246;BME280;46107;53.356;-1.524;2022-07-06T09:27:48;100007.87;;;16.28;54.76
60246;BME280;46107;53.356;-1.524;2022-07-06T09:30:16;100005.83;;;15.12;57.93
60246;BME280;46107;53.356;-1.524;2022-07-06T09:32:46;100006.42;;;15.97;55.29
60246;BME280;46107;53.356;-1.524;2022-07-06T09:35:20;100009.20;;;16.31;55.35
60246;BME280;46107;53.356;-1.524;2022-07-06T09:38:00;100010.41;;;17.09;53.01
60246;BME280;46107;53.356;-1.524;2022-07-06T09:40:27;100011.20;;;16.16;54.63
60246;BME280;46107;53.356;-1.524;2022-07-06T09:43:10;100011.39;;;16.83;53.76
60246;BME280;46107;53.356;-1.524;2022-07-06T09:45:39;100013.25;;;15.76;56.44
60246;BME280;46107;53.356;-1.524;2022-07-06T09:48:09;99990.80;;;16.81;53.28
60246;BME280;46107;53.356;-1.524;2022-07-06T09:50:40;99992.46;;;16.70;53.93
60246;BME280;46107;53.356;-1.524;2022-07-06T09:53:08;99990.43;;;17.60;51.28
60246;BME280;46107;53.356;-1.524;2022-07-06T09:55:35;99994.04;;;17.77;51.15
60246;BME280;46107;53.356;-1.524;2022-07-06T09:58:03;99981.47;;;17.38;52.31
60246;BME280;46107;53.356;-1.524;2022-07-06T10:00:31;99977.19;;;17.48;51.64
60246;BME280;46107;53.356;-1.524;2022-07-06T10:02:59;99975.04;;;16.92;53.78
60246;BME280;46107;53.356;-1.524;2022-07-06T10:05:27;99974.34;;;16.53;53.39
60246;BME280;46107;53.356;-1.524;2022-07-06T10:07:57;99970.70;;;16.37;54.40
60246;BME280;46107;53.356;-1.524;2022-07-06T10:10:26;99975.44;;;17.39;52.47
60246;BME280;46107;53.356;-1.524;2022-07-06T10:12:56;99982.27;;;15.89;56.65
60246;BME280;46107;53.356;-1.524;2022-07-06T10:15:25;99985.70;;;16.65;54.51
60246;BME280;46107;53.356;-1.524;2022-07-06T10:17:53;99994.47;;;17.68;51.84
60246;BME280;46107;53.356;-1.524;2022-07-06T10:20:21;99996.01;;;16.66;55.03
60246;BME280;46107;53.356;-1.524;2022-07-06T10:22:50;99994.18;;;16.69;54.13
60246;BME280;46107;53.356;-1.524;2022-07-06T10:25:18;99999.64;;;15.92;55.93
60246;BME280;46107;53.356;-1.524;2022-07-06T10:27:47;99998.50;;;17.54;50.88
60246;BME280;46107;53.356;-1.524;2022-07-06T10:30:14;100001.01;;;16.15;54.40
60246;BME280;46107;53.356;-1.524;2022-07-06T10:32:45;100003.26;;;17.84;50.76
60246;BME280;46107;53.356;-1.524;2022-07-06T10:35:14;99990.24;;;17.58;51.27
60246;BME280;46107;53.356;-1.524;2022-07-06T10:37:41;99983.64;;;17.01;52.40
60246;BME280;46107;53.356;-1.524;2022-07-06T10:40:10;99995.48;;;17.48;51.45
60246;BME280;46107;53.356;-1.524;2022-07-06T10:42:41;99993.76;;;17.93;50.81
60246;BME280;46107;53.356;-1.524;2022-07-06T10:45:13;99993.67;;;19.08;48.26
60246;BME280;46107;53.356;-1.524;2022-07-06T10:47:41;100001.30;;;19.18;46.47
60246;BME280;46107;53.356;-1.524;2022-07-06T10:50:09;99995.39;;;16.57;49.92
60246;BME280;46107;53.356;-1.524;2022-07-06T10:52:58;99992.16;;;17.68;50.28
60246;BME280;46107;53.356;-1.524;2022-07-06T10:55:31;99973.10;;;17.33;47.95
60246;BME280;46107;53.356;-1.524;2022-07-06T10:57:59;99964.06;;;16.79;50.37
60246;BME280;46107;53.356;-1.524;2022-07-06T11:00:39;99969.13;;;17.81;48.56
60246;BME280;46107;53.356;-1.524;2022-07-06T11:03:31;99966.82;;;17.72;48.08
60246;BME280;46107;53.356;-1.524;2022-07-06T11:06:00;99967.06;;;17.39;47.94
60246;BME280;46107;53.356;-1.524;2022-07-06T11:09:01;99975.08;;;16.73;51.13
60246;BME280;46107;53.356;-1.524;2022-07-06T11:11:39;99972.65;;;17.03;49.24
60246;BME280;46107;53.356;-1.524;2022-07-06T11:14:09;99985.94;;;16.11;50.75
60246;BME280;46107;53.356;-1.524;2022-07-06T11:16:39;99981.15;;;16.55;52.11
60246;BME280;46107;53.356;-1.524;2022-07-06T11:19:09;99971.57;;;17.13;51.44
60246;BME280;46107;53.356;-1.524;2022-07-06T11:21:39;99970.79;;;16.84;50.44
60246;BME280;46107;53.356;-1.524;2022-07-06T11:24:11;99974.60;;;16.43;51.25
60246;BME280;46107;53.356;-1.524;2022-07-06T11:26:39;99951.07;;;16.58;51.64
60246;BME280;46107;53.356;-1.524;2022-07-06T11:29:09;99931.96;;;17.52;49.63
60246;BME280;46107;53.356;-1.524;2022-07-06T11:31:39;99929.32;;;17.40;49.23
60246;BME280;46107;53.356;-1.524;2022-07-06T11:34:07;99917.35;;;16.81;49.95
60246;BME280;46107;53.356;-1.524;2022-07-06T11:36:36;99906.38;;;16.47;50.29
60246;BME280;46107;53.356;-1.524;2022-07-06T11:39:04;99899.67;;;16.47;50.06
60246;BME280;46107;53.356;-1.524;2022-07-06T11:41:33;99911.13;;;17.35;49.95
60246;BME280;46107;53.356;-1.524;2022-07-06T11:44:00;99932.36;;;16.43;50.56
60246;BME280;46107;53.356;-1.524;2022-07-06T11:46:30;99925.90;;;16.68;50.06
60246;BME280;46107;53.356;-1.524;2022-07-06T11:48:59;99934.12;;;16.48;51.34
60246;BME280;46107;53.356;-1.524;2022-07-06T11:51:27;99933.40;;;17.35;49.56
60246;BME280;46107;53.356;-1.524;2022-07-06T11:53:56;99918.35;;;16.94;50.65
60246;BME280;46107;53.356;-1.524;2022-07-06T11:56:24;99917.82;;;16.81;50.79
60246;BME280;46107;53.356;-1.524;2022-07-06T11:58:53;99901.56;;;16.54;51.38
60246;BME280;46107;53.356;-1.524;2022-07-06T12:01:21;99922.01;;;16.25;51.84
60246;BME280;46107;53.356;-1.524;2022-07-06T12:03:49;99932.89;;;16.06;52.14
60246;BME280;46107;53.356;-1.524;2022-07-06T12:06:18;99934.49;;;15.68;52.45
60246;BME280;46107;53.356;-1.524;2022-07-06T12:08:48;99938.62;;;16.09;52.35
60246;BME280;46107;53.356;-1.524;2022-07-06T12:11:19;99952.04;;;16.40;51.91
60246;BME280;46107;53.356;-1.524;2022-07-06T12:13:47;99965.74;;;16.13;52.81
60246;BME280;46107;53.356;-1.524;2022-07-06T12:16:15;99946.54;;;15.39;55.14
60246;BME280;46107;53.356;-1.524;2022-07-06T12:18:43;99947.02;;;16.30;53.82
60246;BME280;46107;53.356;-1.524;2022-07-06T12:21:13;99960.36;;;16.39;52.29
60246;BME280;46107;53.356;-1.524;2022-07-06T12:23:43;99953.04;;;15.07;56.09
60246;BME280;46107;53.356;-1.524;2022-07-06T12:26:12;99950.56;;;16.36;52.90
60246;BME280;46107;53.356;-1.524;2022-07-06T12:28:42;99955.12;;;15.56;54.28
60246;BME280;46107;53.356;-1.524;2022-07-06T12:31:10;99939.30;;;16.58;52.31
60246;BME280;46107;53.356;-1.524;2022-07-06T12:33:38;99935.61;;;15.90;53.99
60246;BME280;46107;53.356;-1.524;2022-07-06T12:36:14;99926.00;;;15.23;55.84
60246;BME280;46107;53.356;-1.524;2022-07-06T12:38:47;99923.48;;;16.33;53.33
60246;BME280;46107;53.356;-1.524;2022-07-06T12:41:32;99941.99;;;16.22;53.05
60246;BME280;46107;53.356;-1.524;2022-07-06T12:44:03;99951.75;;;16.19;53.37
60246;BME280;46107;53.356;-1.524;2022-07-06T12:46:33;99943.43;;;15.53;55.04
60246;BME280;46107;53.356;-1.524;2022-07-06T12:49:03;99938.13;;;16.19;54.61
60246;BME280;46107;53.356;-1.524;2022-07-06T12:51:53;99933.55;;;16.92;52.87
60246;BME280;46107;53.356;-1.524;2022-07-06T12:54:21;99946.12;;;16.36;54.57
60246;BME280;46107;53.356;-1.524;2022-07-06T12:56:58;99941.04;;;16.69;52.70
60246;BME280;46107;53.356;-1.524;2022-07-06T12:59:26;99945.93;;;16.60;53.54
60246;BME280;46107;53.356;-1.524;2022-07-06T13:01:54;99949.43;;;17.02;52.18
60246;BME280;46107;53.356;-1.524;2022-07-06T13:04:21;99961.35;;;17.03;51.41
60246;BME280;46107;53.356;-1.524;2022-07-06T13:06:49;99961.42;;;16.81;51.44
60246;BME280;46107;53.356;-1.524;2022-07-06T13:09:16;99957.53;;;17.39;50.85
60246;BME280;46107;53.356;-1.524;2022-07-06T13:11:44;99953.40;;;17.87;50.29
60246;BME280;46107;53.356;-1.524;2022-07-06T13:14:11;99951.64;;;16.75;52.78
60246;BME280;46107;53.356;-1.524;2022-07-06T13:16:39;99946.79;;;18.08;49.40
60246;BME280;46107;53.356;-1.524;2022-07-06T13:19:06;99944.86;;;17.52;50.27
60246;BME280;46107;53.356;-1.524;2022-07-06T13:21:33;99938.79;;;16.81;51.61
60246;BME280;46107;53.356;-1.524;2022-07-06T13:24:01;99941.81;;;17.37;50.73
60246;BME280;46107;53.356;-1.524;2022-07-06T13:26:28;99945.40;;;17.10;51.70
60246;BME280;46107;53.356;-1.524;2022-07-06T13:28:56;99948.98;;;16.86;52.85
60246;BME280;46107;53.356;-1.524;2022-07-06T13:31:23;99945.78;;;17.36;52.09
60246;BME280;46107;53.356;-1.524;2022-07-06T13:33:51;99946.16;;;17.12;53.10
60246;BME280;46107;53.356;-1.524;2022-07-06T13:36:18;99946.49;;;16.65;54.00
60246;BME280;46107;53.356;-1.524;2022-07-06T13:38:46;99951.87;;;16.93;53.63
60246;BME280;46107;53.356;-1.524;2022-07-06T13:41:13;99956.80;;;17.45;52.06
60246;BME280;46107;53.356;-1.524;2022-07-06T13:43:41;99955.47;;;16.58;54.45
60246;BME280;46107;53.356;-1.524;2022-07-06T13:46:08;99952.30;;;17.02;52.68
60246;BME280;46107;53.356;-1.524;2022-07-06T13:48:35;99952.98;;;16.91;53.50
60246;BME280;46107;53.356;-1.524;2022-07-06T13:51:03;99957.65;;;17.03;52.93
60246;BME280;46107;53.356;-1.524;2022-07-06T13:53:31;99960.37;;;17.50;52.14
60246;BME280;46107;53.356;-1.524;2022-07-06T13:55:59;99965.68;;;17.05;54.23
60246;BME280;46107;53.356;-1.524;2022-07-06T13:58:26;99960.01;;;16.67;54.31
60246;BME280;46107;53.356;-1.524;2022-07-06T14:00:54;99968.09;;;16.31;56.11
60246;BME280;46107;53.356;-1.524;2022-07-06T14:03:21;99959.27;;;16.75;55.05
60246;BME280;46107;53.356;-1.524;2022-07-06T14:05:48;99963.89;;;16.14;56.17
60246;BME280;46107;53.356;-1.524;2022-07-06T14:08:16;99958.87;;;16.74;54.12
60246;BME280;46107;53.356;-1.524;2022-07-06T14:10:43;99955.09;;;17.85;51.99
60246;BME280;46107;53.356;-1.524;2022-07-06T14:13:11;99951.49;;;17.09;53.15
60246;BME280;46107;53.356;-1.524;2022-07-06T14:15:38;99949.35;;;17.05;53.44
60246;BME280;46107;53.356;-1.524;2022-07-06T14:18:05;99948.35;;;16.57;53.69
60246;BME280;46107;53.356;-1.524;2022-07-06T14:20:33;99950.91;;;17.25;52.81
60246;BME280;46107;53.356;-1.524;2022-07-06T14:23:00;99941.18;;;16.26;53.28
60246;BME280;46107;53.356;-1.524;2022-07-06T14:25:28;99950.22;;;16.11;54.89
60246;BME280;46107;53.356;-1.524;2022-07-06T14:27:55;99940.42;;;15.78;56.64
60246;BME280;46107;53.356;-1.524;2022-07-06T14:30:23;99925.99;;;16.30;54.76
60246;BME280;46107;53.356;-1.524;2022-07-06T14:32:50;99923.41;;;16.78;52.73
60246;BME280;46107;53.356;-1.524;2022-07-06T14:35:18;99925.35;;;16.45;53.69
60246;BME280;46107;53.356;-1.524;2022-07-06T14:37:45;99918.23;;;17.94;49.35
60246;BME280;46107;53.356;-1.524;2022-07-06T14:40:13;99918.78;;;18.73;47.43
60246;BME280;46107;53.356;-1.524;2022-07-06T14:42:41;99920.39;;;16.87;51.11
60246;BME280;46107;53.356;-1.524;2022-07-06T14:45:09;99918.59;;;16.33;53.60
60246;BME280;46107;53.356;-1.524;2022-07-06T14:47:36;99921.42;;;16.18;54.66
60246;BME280;46107;53.356;-1.524;2022-07-06T14:50:04;99921.07;;;16.26;54.03
60246;BME280;46107;53.356;-1.524;2022-07-06T14:52:31;99922.94;;;17.07;52.02
60246;BME280;46107;53.356;-1.524;2022-07-06T14:54:59;99919.46;;;16.38;53.70
60246;BME280;46107;53.356;-1.524;2022-07-06T14:57:27;99921.60;;;16.21;54.30
60246;BME280;46107;53.356;-1.524;2022-07-06T14:59:54;99910.90;;;16.74;52.93
60246;BME280;46107;53.356;-1.524;2022-07-06T15:02:21;99898.44;;;17.36;51.70
60246;BME280;46107;53.356;-1.524;2022-07-06T15:04:49;99904.03;;;16.35;53.01
60246;BME280;46107;53.356;-1.524;2022-07-06T15:07:16;99900.87;;;16.91;51.83
60246;BME280;46107;53.356;-1.524;2022-07-06T15:09:44;99903.31;;;17.29;51.18
60246;BME280;46107;53.356;-1.524;2022-07-06T15:12:12;99908.73;;;17.20;51.77
60246;BME280;46107;53.356;-1.524;2022-07-06T15:14:39;99899.97;;;17.19;51.39
60246;BME280;46107;53.356;-1.524;2022-07-06T15:17:06;99897.81;;;16.86;52.56
60246;BME280;46107;53.356;-1.524;2022-07-06T15:19:34;99901.19;;;16.31;53.59
60246;BME280;46107;53.356;-1.524;2022-07-06T15:22:01;99891.29;;;16.35;54.64
60246;BME280;46107;53.356;-1.524;2022-07-06T15:24:28;99890.83;;;16.33;54.43
60246;BME280;46107;53.356;-1.524;2022-07-06T15:26:56;99888.36;;;16.34;54.21
60246;BME280;46107;53.356;-1.524;2022-07-06T15:29:25;99880.28;;;16.94;53.33
60246;BME280;46107;53.356;-1.524;2022-07-06T15:31:53;99890.68;;;17.23;52.36
60246;BME280;46107;53.356;-1.524;2022-07-06T15:34:20;99892.25;;;18.58;48.62
60246;BME280;46107;53.356;-1.524;2022-07-06T15:36:48;99909.67;;;17.59;51.18
60246;BME280;46107;53.356;-1.524;2022-07-06T15:39:16;99904.83;;;18.99;48.51
60246;BME280;46107;53.356;-1.524;2022-07-06T15:41:43;99903.87;;;18.40;48.25
60246;BME280;46107;53.356;-1.524;2022-07-06T15:44:11;99900.21;;;17.12;51.34
60246;BME280;46107;53.356;-1.524;2022-07-06T15:46:38;99902.48;;;18.13;49.64
60246;BME280;46107;53.356;-1.524;2022-07-06T15:49:06;99909.32;;;17.35;50.88
60246;BME280;46107;53.356;-1.524;2022-07-06T15:51:33;99903.63;;;16.85;51.76
60246;BME280;46107;53.356;-1.524;2022-07-06T15:54:01;99884.92;;;17.33;51.08
60246;BME280;46107;53.356;-1.524;2022-07-06T15:56:28;99881.76;;;17.08;51.28
60246;BME280;46107;53.356;-1.524;2022-07-06T15:58:55;99876.08;;;17.03;51.30
60246;BME280;46107;53.356;-1.524;2022-07-06T16:01:23;99875.55;;;18.24;49.55
60246;BME280;46107;53.356;-1.524;2022-07-06T16:03:50;99881.39;;;17.75;50.05
60246;BME280;46107;53.356;-1.524;2022-07-06T16:06:18;99873.22;;;16.48;52.55
60246;BME280;46107;53.356;-1.524;2022-07-06T16:08:45;99872.68;;;16.91;51.64
60246;BME280;46107;53.356;-1.524;2022-07-06T16:11:15;99867.97;;;16.86;51.99
60246;BME280;46107;53.356;-1.524;2022-07-06T16:13:43;99864.87;;;17.60;50.44
60246;BME280;46107;53.356;-1.524;2022-07-06T16:16:12;99854.52;;;17.14;51.96
60246;BME280;46107;53.356;-1.524;2022-07-06T16:18:40;99856.13;;;16.76;53.48
60246;BME280;46107;53.356;-1.524;2022-07-06T16:21:07;99859.94;;;17.41;51.43
60246;BME280;46107;53.356;-1.524;2022-07-06T16:23:35;99850.62;;;17.19;51.91
60246;BME280;46107;53.356;-1.524;2022-07-06T16:26:02;99850.91;;;15.71;55.34
60246;BME280;46107;53.356;-1.524;2022-07-06T16:28:29;99854.37;;;16.09;54.46
60246;BME280;46107;53.356;-1.524;2022-07-06T16:30:57;99856.18;;;16.54;54.83
60246;BME280;46107;53.356;-1.524;2022-07-06T16:33:24;99858.78;;;15.91;57.23
60246;BME280;46107;53.356;-1.524;2022-07-06T16:35:52;99858.49;;;17.03;54.18
60246;BME280;46107;53.356;-1.524;2022-07-06T16:38:19;99864.83;;;16.02;56.55
60246;BME280;46107;53.356;-1.524;2022-07-06T16:40:47;99863.88;;;15.18;58.25
60246;BME280;46107;53.356;-1.524;2022-07-06T16:43:14;99858.02;;;16.52;55.73
60246;BME280;46107;53.356;-1.524;2022-07-06T16:45:41;99852.21;;;16.85;54.87
60246;BME280;46107;53.356;-1.524;2022-07-06T16:48:09;99848.19;;;16.07;56.24
60246;BME280;46107;53.356;-1.524;2022-07-06T16:50:36;99841.97;;;16.89;54.18
60246;BME280;46107;53.356;-1.524;2022-07-06T16:53:04;99845.38;;;16.49;54.78
60246;BME280;46107;53.356;-1.524;2022-07-06T16:55:31;99838.49;;;15.95;55.85
60246;BME280;46107;53.356;-1.524;2022-07-06T16:57:59;99831.22;;;16.33;55.71
60246;BME280;46107;53.356;-1.524;2022-07-06T17:00:26;99828.29;;;16.60;55.03
60246;BME280;46107;53.356;-1.524;2022-07-06T17:02:53;99829.36;;;16.08;55.83
60246;BME280;46107;53.356;-1.524;2022-07-06T17:05:21;99829.74;;;16.30;56.19
60246;BME280;46107;53.356;-1.524;2022-07-06T17:07:49;99825.82;;;16.30;55.64
60246;BME280;46107;53.356;-1.524;2022-07-06T17:10:16;99817.84;;;16.34;55.05
60246;BME280;46107;53.356;-1.524;2022-07-06T17:12:43;99814.72;;;16.18;55.91
60246;BME280;46107;53.356;-1.524;2022-07-06T17:15:11;99808.42;;;16.64;54.26
60246;BME280;46107;53.356;-1.524;2022-07-06T17:17:38;99812.69;;;17.37;52.61
60246;BME280;46107;53.356;-1.524;2022-07-06T17:20:07;99829.34;;;16.43;53.92
60246;BME280;46107;53.356;-1.524;2022-07-06T17:22:34;99823.65;;;17.17;52.09
60246;BME280;46107;53.356;-1.524;2022-07-06T17:25:02;99826.93;;;16.18;54.68
60246;BME280;46107;53.356;-1.524;2022-07-06T17:27:29;99824.88;;;17.12;53.08
60246;BME280;46107;53.356;-1.524;2022-07-06T17:29:56;99829.15;;;16.08;54.66
60246;BME280;46107;53.356;-1.524;2022-07-06T17:32:24;99833.02;;;16.75;54.11
60246;BME280;46107;53.356;-1.524;2022-07-06T17:34:51;99831.43;;;16.62;54.36
60246;BME280;46107;53.356;-1.524;2022-07-06T17:37:20;99832.42;;;16.73;53.71
60246;BME280;46107;53.356;-1.524;2022-07-06T17:39:47;99830.26;;;16.30;54.82
60246;BME280;46107;53.356;-1.524;2022-07-06T17:42:15;99832.09;;;16.50;54.90
60246;BME280;46107;53.356;-1.524;2022-07-06T17:44:42;99823.55;;;16.55;53.90
60246;BME280;46107;53.356;-1.524;2022-07-06T17:47:10;99817.52;;;17.06;53.50
60246;BME280;46107;53.356;-1.524;2022-07-06T17:49:37;99805.51;;;16.33;55.37
60246;BME280;46107;53.356;-1.524;2022-07-06T17:52:05;99802.45;;;17.30;52.76
60246;BME280;46107;53.356;-1.524;2022-07-06T17:54:32;99805.15;;;16.62;53.72
60246;BME280;46107;53.356;-1.524;2022-07-06T17:56:59;99806.37;;;16.22;54.15
60246;BME280;46107;53.356;-1.524;2022-07-06T17:59:27;99803.11;;;16.92;53.25
60246;BME280;46107;53.356;-1.524;2022-07-06T18:01:54;99792.79;;;16.20;54.68
60246;BME280;46107;53.356;-1.524;2022-07-06T18:04:22;99800.91;;;15.93;55.44
60246;BME280;46107;53.356;-1.524;2022-07-06T18:06:49;99794.55;;;16.87;53.63
60246;BME280;46107;53.356;-1.524;2022-07-06T18:09:17;99797.61;;;16.97;52.41
60246;BME280;46107;53.356;-1.524;2022-07-06T18:11:44;99779.69;;;15.61;55.45
60246;BME280;46107;53.356;-1.524;2022-07-06T18:14:12;99782.55;;;15.30;57.05
60246;BME280;46107;53.356;-1.524;2022-07-06T18:16:39;99776.13;;;15.89;56.09
60246;BME280;46107;53.356;-1.524;2022-07-06T18:19:07;99776.35;;;15.87;56.37
60246;BME280;46107;53.356;-1.524;2022-07-06T18:21:34;99771.11;;;16.49;54.04
60246;BME280;46107;53.356;-1.524;2022-07-06T18:24:02;99766.52;;;17.05;52.84
60246;BME280;46107;53.356;-1.524;2022-07-06T18:26:30;99758.58;;;17.66;51.26
60246;BME280;46107;53.356;-1.524;2022-07-06T18:28:57;99766.85;;;17.03;52.94
60246;BME280;46107;53.356;-1.524;2022-07-06T18:31:25;99761.67;;;16.38;54.55
60246;BME280;46107;53.356;-1.524;2022-07-06T18:33:52;99759.02;;;16.99;53.10
60246;BME280;46107;53.356;-1.524;2022-07-06T18:36:19;99753.77;;;16.87;54.00
60246;BME280;46107;53.356;-1.524;2022-07-06T18:38:47;99741.38;;;16.14;55.53
60246;BME280;46107;53.356;-1.524;2022-07-06T18:41:14;99731.20;;;17.00;54.43
60246;BME280;46107;53.356;-1.524;2022-07-06T18:43:42;99727.38;;;17.70;52.70
60246;BME280;46107;53.356;-1.524;2022-07-06T18:46:09;99729.12;;;17.15;54.15
60246;BME280;46107;53.356;-1.524;2022-07-06T18:48:37;99726.35;;;16.78;54.94
60246;BME280;46107;53.356;-1.524;2022-07-06T18:51:04;99724.69;;;17.02;54.64
60246;BME280;46107;53.356;-1.524;2022-07-06T18:53:32;99716.73;;;17.63;53.64
60246;BME280;46107;53.356;-1.524;2022-07-06T18:55:59;99712.94;;;18.60;51.19
60246;BME280;46107;53.356;-1.524;2022-07-06T18:58:26;99700.39;;;17.59;53.26
60246;BME280;46107;53.356;-1.524;2022-07-06T19:00:54;99707.36;;;18.32;51.72
60246;BME280;46107;53.356;-1.524;2022-07-06T19:03:21;99711.05;;;16.80;54.64
60246;BME280;46107;53.356;-1.524;2022-07-06T19:05:49;99725.45;;;17.01;54.12
60246;BME280;46107;53.356;-1.524;2022-07-06T19:08:17;99726.25;;;15.97;57.98
60246;BME280;46107;53.356;-1.524;2022-07-06T19:10:44;99731.69;;;16.78;55.71
60246;BME280;46107;53.356;-1.524;2022-07-06T19:13:11;99725.42;;;15.26;60.29
60246;BME280;46107;53.356;-1.524;2022-07-06T19:15:39;99706.24;;;15.79;59.14
60246;BME280;46107;53.356;-1.524;2022-07-06T19:18:06;99713.61;;;15.82;59.12
60246;BME280;46107;53.356;-1.524;2022-07-06T19:20:34;99726.34;;;16.20;57.91
60246;BME280;46107;53.356;-1.524;2022-07-06T19:23:02;99722.82;;;15.66;59.11
60246;BME280;46107;53.356;-1.524;2022-07-06T19:25:30;99725.28;;;15.48;59.90
60246;BME280;46107;53.356;-1.524;2022-07-06T19:27:57;99724.11;;;15.22;61.14
60246;BME280;46107;53.356;-1.524;2022-07-06T19:30:24;99715.87;;;14.82;61.68